Time;durP1;ratioP1;P1;durP2;ratioP2;P2;SDS_P1;SDS_P2;PMS_P1;PMS_P2;Temp;Humidity;BMP_temperature;BMP_pressure;BME280_temperature;BME280_humidity;BME280_pressure;Samples;Min_cycle;Max_cycle;Signal;HPM_P1;HPM_P2
2022/11/16 00:00:58;;;;;;;9.52;3.53;;;;;;;;;;5055720;28;20041;-77
2022/11/16 00:03:24;;;;;;;16.02;3.17;;;;;;;;;;5036024;28;20045;-76
2022/11/16 00:05:55;;;;;;;9.30;3.47;;;;;;;;;;5054510;28;20037;-77
2022/11/16 00:08:21;;;;;;;6.03;1.67;;;;;;;;;;5054240;28;20045;-76
2022/11/16 00:10:47;;;;;;;8.77;2.80;;;;;;;;;;5054024;28;20037;-77
2022/11/16 00:13:13;;;;;;;6.00;2.17;;;;;;;;;;5053064;28;20578;-77
2022/11/16 00:15:42;;;;;;;10.32;2.15;;;;;;;;;;5035863;28;20486;-76
2022/11/16 00:18:08;;;;;;;16.83;3.20;;;;;;;;;;5029647;28;20049;-76
2022/11/16 00:20:34;;;;;;;14.90;2.25;;;;;;;;;;5035309;28;20041;-77
2022/11/16 00:23:00;;;;;;;8.27;2.13;;;;;;;;;;5052914;28;20125;-77
2022/11/16 00:25:26;;;;;;;14.98;2.75;;;;;;;;;;5030598;28;20155;-76
2022/11/16 00:27:52;;;;;;;9.48;3.83;;;;;;;;;;5028742;28;20073;-76
2022/11/16 00:30:18;;;;;;;8.75;2.38;;;;;;;;;;5054023;28;20071;-76
2022/11/16 00:32:44;;;;;;;5.47;2.22;;;;;;;;;;5054996;28;20037;-75
2022/11/16 00:35:10;;;;;;;12.15;3.85;;;;;;;;;;5054964;28;20052;-75
2022/11/16 00:37:36;;;;;;;13.77;3.17;;;;;;;;;;5028823;28;20538;-75
2022/11/16 00:40:03;;;;;;;9.35;2.55;;;;;;;;;;5050843;28;20060;-75
2022/11/16 00:42:29;;;;;;;7.10;2.20;;;;;;;;;;5027892;28;20045;-75
2022/11/16 00:44:55;;;;;;;8.20;2.05;;;;;;;;;;5045046;28;20068;-75
2022/11/16 00:47:21;;;;;;;10.50;2.83;;;;;;;;;;5034343;28;20044;-75
2022/11/16 00:49:47;;;;;;;9.77;2.60;;;;;;;;;;5050562;28;20037;-75
2022/11/16 00:52:13;;;;;;;9.30;2.35;;;;;;;;;;5054238;28;20119;-75
2022/11/16 00:54:39;;;;;;;7.40;2.53;;;;;;;;;;5052545;28;20119;-75
2022/11/16 00:57:05;;;;;;;7.40;2.38;;;;;;;;;;5050444;28;20045;-75
2022/11/16 00:59:31;;;;;;;8.20;1.88;;;;;;;;;;5054137;28;20095;-75
2022/11/16 01:01:57;;;;;;;7.57;1.55;;;;;;;;;;5055350;28;20195;-76
2022/11/16 01:04:23;;;;;;;15.60;1.85;;;;;;;;;;5052080;28;20049;-76
2022/11/16 01:06:50;;;;;;;12.82;2.20;;;;;;;;;;5036796;28;20588;-75
2022/11/16 01:09:16;;;;;;;10.55;1.73;;;;;;;;;;5051410;28;20095;-75
2022/11/16 01:14:26;;;;;;;5.07;2.05;;;;;;;;;;5054596;28;20113;-76
2022/11/16 01:16:53;;;;;;;4.72;1.88;;;;;;;;;;5052551;28;20056;-75
2022/11/16 01:19:19;;;;;;;5.15;2.25;;;;;;;;;;5052556;28;20037;-76
2022/11/16 01:21:45;;;;;;;10.60;2.28;;;;;;;;;;5052888;28;20047;-76
2022/11/16 01:24:11;;;;;;;13.93;2.08;;;;;;;;;;5027297;28;20055;-75
2022/11/16 01:26:37;;;;;;;15.45;2.35;;;;;;;;;;5051688;28;20052;-75
2022/11/16 01:29:03;;;;;;;6.40;3.13;;;;;;;;;;5028542;28;20175;-76
2022/11/16 01:31:29;;;;;;;7.82;2.65;;;;;;;;;;5035083;28;20040;-76
2022/11/16 01:33:55;;;;;;;10.48;2.13;;;;;;;;;;5053514;28;20800;-76
2022/11/16 01:36:22;;;;;;;7.32;1.90;;;;;;;;;;5056535;28;20045;-75
2022/11/16 01:38:49;;;;;;;7.30;2.20;;;;;;;;;;5056232;28;20082;-76
2022/11/16 01:41:17;;;;;;;6.72;2.63;;;;;;;;;;5030209;28;20056;-76
2022/11/16 01:43:49;;;;;;;10.95;2.45;;;;;;;;;;5056085;28;20037;-76
2022/11/16 01:46:15;;;;;;;8.60;2.45;;;;;;;;;;5056971;28;20048;-76
2022/11/16 01:48:41;;;;;;;9.15;2.42;;;;;;;;;;5055561;28;20048;-77
2022/11/16 01:51:08;;;;;;;12.95;2.40;;;;;;;;;;5036216;28;20045;-76
2022/11/16 01:53:34;;;;;;;9.38;2.83;;;;;;;;;;5035017;28;20041;-78
2022/11/16 01:56:00;;;;;;;5.65;1.70;;;;;;;;;;5056381;28;20091;-78
2022/11/16 01:58:27;;;;;;;10.02;2.92;;;;;;;;;;5031480;28;20037;-79
2022/11/16 02:00:53;;;;;;;10.05;1.73;;;;;;;;;;5054808;28;20048;-79
2022/11/16 02:03:20;;;;;;;11.10;1.85;;;;;;;;;;5031448;28;20049;-79
2022/11/16 02:05:52;;;;;;;7.30;2.15;;;;;;;;;;5038504;28;20037;-78
2022/11/16 02:11:12;;;;;;;5.18;3.17;;;;;;;;;;5056122;28;20124;-78
2022/11/16 02:13:48;;;;;;;8.95;1.85;;;;;;;;;;5031468;28;20102;-78
2022/11/16 02:16:27;;;;;;;4.13;2.25;;;;;;;;;;5054548;28;20586;-78
2022/11/16 02:19:16;;;;;;;5.30;1.40;;;;;;;;;;5055672;28;20055;-78
2022/11/16 02:21:58;;;;;;;3.28;1.85;;;;;;;;;;5035233;28;20040;-78
2022/11/16 02:24:27;;;;;;;4.57;2.00;;;;;;;;;;5055326;28;20133;-78
2022/11/16 02:27:00;;;;;;;10.25;2.63;;;;;;;;;;5053409;28;20041;-78
2022/11/16 02:29:26;;;;;;;;;;;;;;;;;;5032639;28;20033;-78
2022/11/16 02:32:12;;;;;;;5.55;1.73;;;;;;;;;;5054401;28;20501;-79
2022/11/16 02:34:44;;;;;;;6.95;1.70;;;;;;;;;;5040943;28;20045;-79
2022/11/16 02:37:11;;;;;;;5.43;2.17;;;;;;;;;;5055208;28;20044;-77
2022/11/16 02:39:42;;;;;;;8.75;2.00;;;;;;;;;;5056376;28;20045;-79
2022/11/16 02:42:11;;;;;;;2.83;1.10;;;;;;;;;;5055433;28;20108;-79
2022/11/16 02:44:41;;;;;;;5.22;2.05;;;;;;;;;;5053057;28;20119;-78
2022/11/16 02:47:11;;;;;;;11.80;2.58;;;;;;;;;;5052618;28;20056;-78
2022/11/16 02:49:40;;;;;;;7.65;1.40;;;;;;;;;;5052950;28;20426;-79
2022/11/16 02:52:06;;;;;;;5.93;2.13;;;;;;;;;;5050900;28;20037;-78
2022/11/16 02:54:32;;;;;;;3.00;1.30;;;;;;;;;;5049915;28;20131;-78
2022/11/16 02:57:01;;;;;;;7.63;1.70;;;;;;;;;;5050728;28;20049;-78
2022/11/16 02:59:34;;;;;;;6.68;1.50;;;;;;;;;;5048597;28;20037;-79
2022/11/16 03:02:11;;;;;;;3.10;1.45;;;;;;;;;;5050535;28;20515;-78
2022/11/16 03:04:43;;;;;;;7.65;2.17;;;;;;;;;;5049781;28;20049;-78
2022/11/16 03:07:10;;;;;;;9.88;2.70;;;;;;;;;;5029351;28;20041;-78
2022/11/16 03:09:38;;;;;;;4.35;1.73;;;;;;;;;;5033120;28;20687;-78
2022/11/16 03:12:07;;;;;;;7.32;2.63;;;;;;;;;;5027780;28;20032;-78
2022/11/16 03:14:33;;;;;;;8.80;3.17;;;;;;;;;;5051251;28;20048;-78
2022/11/16 03:17:04;;;;;;;3.95;1.80;;;;;;;;;;5031976;28;20052;-79
2022/11/16 03:19:37;;;;;;;4.15;1.38;;;;;;;;;;5050151;28;20115;-79
2022/11/16 03:22:10;;;;;;;6.70;2.03;;;;;;;;;;5033930;28;20049;-78
2022/11/16 03:24:36;;;;;;;6.10;2.22;;;;;;;;;;5033046;28;20076;-79
2022/11/16 03:27:11;;;;;;;4.68;1.63;;;;;;;;;;5051645;28;20037;-79
2022/11/16 03:29:41;;;;;;;8.40;1.98;;;;;;;;;;5049950;28;20052;-78
2022/11/16 03:32:18;;;;;;;6.10;1.48;;;;;;;;;;5049346;28;20556;-78
2022/11/16 03:34:48;;;;;;;9.10;1.73;;;;;;;;;;5050353;28;20055;-79
2022/11/16 03:37:14;;;;;;;10.05;1.98;;;;;;;;;;5049131;28;20037;-79
2022/11/16 03:39:41;;;;;;;4.38;1.70;;;;;;;;;;5050055;28;20136;-78
2022/11/16 03:42:09;;;;;;;5.35;1.60;;;;;;;;;;5051065;28;20049;-79
2022/11/16 03:44:36;;;;;;;16.50;3.75;;;;;;;;;;5049165;28;20297;-79
2022/11/16 03:47:02;;;;;;;18.05;2.35;;;;;;;;;;5031425;28;20172;-78
2022/11/16 03:49:30;;;;;;;15.95;2.13;;;;;;;;;;5048019;28;20045;-79
2022/11/16 03:51:56;;;;;;;11.68;1.98;;;;;;;;;;5050901;28;20435;-79
2022/11/16 03:54:23;;;;;;;7.82;2.25;;;;;;;;;;5031953;28;20088;-79
2022/11/16 03:56:49;;;;;;;6.95;2.17;;;;;;;;;;5047693;28;20061;-79
2022/11/16 03:59:15;;;;;;;14.38;2.55;;;;;;;;;;5050200;28;20045;-78
2022/11/16 04:01:41;;;;;;;8.25;2.28;;;;;;;;;;5050477;28;20033;-78
2022/11/16 04:24:10;;;;;;;14.25;2.08;;;;;;;;;;5052260;28;20107;-78
2022/11/16 04:26:14;;;;;;;3.28;1.65;;;;;;;;;;5049762;28;20960;-78
2022/11/16 04:28:40;;;;;;;10.20;2.13;;;;;;;;;;5034640;28;20041;-78
2022/11/16 04:39:21;;;;;;;9.60;2.25;;;;;;;;;;5051747;28;20054;-79
2022/11/16 04:47:20;;;;;;;4.10;1.20;;;;;;;;;;5049110;28;20050;-78
2022/11/16 04:49:46;;;;;;;7.18;1.88;;;;;;;;;;5049332;28;20046;-78
2022/11/16 04:52:12;;;;;;;5.10;1.77;;;;;;;;;;5049113;28;20037;-78
2022/11/16 04:54:39;;;;;;;7.82;1.90;;;;;;;;;;5049643;28;20044;-79
2022/11/16 04:57:05;;;;;;;4.53;2.60;;;;;;;;;;5031738;28;20581;-79
2022/11/16 04:59:31;;;;;;;7.00;2.70;;;;;;;;;;5048418;28;20127;-78
2022/11/16 05:02:09;;;;;;;5.22;1.70;;;;;;;;;;5050194;28;20037;-78
2022/11/16 05:04:36;;;;;;;11.02;2.33;;;;;;;;;;5048676;28;20132;-80
2022/11/16 05:07:02;;;;;;;5.35;1.58;;;;;;;;;;5050872;28;20116;-79
2022/11/16 05:09:28;;;;;;;5.55;1.88;;;;;;;;;;5035322;28;20045;-79
2022/11/16 05:11:54;;;;;;;8.45;2.67;;;;;;;;;;5050804;28;20419;-79
2022/11/16 05:14:20;;;;;;;8.88;2.53;;;;;;;;;;5050961;28;20041;-78
2022/11/16 05:16:48;;;;;;;7.00;1.83;;;;;;;;;;5029676;28;20660;-78
2022/11/16 05:21:59;;;;;;;12.27;2.72;;;;;;;;;;5048885;28;20045;-80
2022/11/16 05:24:35;;;;;;;13.80;2.28;;;;;;;;;;5049144;28;20045;-79
2022/11/16 05:27:05;;;;;;;8.50;1.67;;;;;;;;;;5033514;28;20519;-79
2022/11/16 05:29:35;;;;;;;5.85;2.90;;;;;;;;;;5030455;28;20770;-79
2022/11/16 05:32:03;;;;;;;5.32;2.10;;;;;;;;;;5048145;28;20037;-80
2022/11/16 05:34:29;;;;;;;15.13;2.53;;;;;;;;;;5049377;28;20045;-79
2022/11/16 05:36:55;;;;;;;9.75;2.33;;;;;;;;;;5049410;28;20041;-80
2022/11/16 05:39:22;;;;;;;11.77;2.22;;;;;;;;;;5032559;28;20553;-79
2022/11/16 05:41:49;;;;;;;7.30;3.00;;;;;;;;;;5048589;28;20041;-78
2022/11/16 05:44:15;;;;;;;8.68;2.70;;;;;;;;;;5047742;28;20255;-79
2022/11/16 05:46:41;;;;;;;8.38;1.90;;;;;;;;;;5049688;28;20057;-79
2022/11/16 05:49:08;;;;;;;8.18;1.83;;;;;;;;;;5050568;28;20037;-79
2022/11/16 05:51:34;;;;;;;7.20;1.80;;;;;;;;;;5033538;28;20041;-79
2022/11/16 05:54:01;;;;;;;12.75;1.90;;;;;;;;;;5048499;28;20413;-78
2022/11/16 05:56:27;;;;;;;7.60;2.33;;;;;;;;;;5048133;28;20115;-77
2022/11/16 05:58:53;;;;;;;9.70;2.33;;;;;;;;;;5046414;28;20041;-78
2022/11/16 06:01:19;;;;;;;5.63;1.88;;;;;;;;;;5047268;28;20041;-78
2022/11/16 06:03:45;;;;;;;4.88;1.65;;;;;;;;;;5048681;28;20055;-79
2022/11/16 06:06:11;;;;;;;5.13;1.55;;;;;;;;;;5048345;28;20041;-79
2022/11/16 06:08:38;;;;;;;3.33;1.20;;;;;;;;;;5030473;28;20037;-79
2022/11/16 06:11:04;;;;;;;3.72;1.02;;;;;;;;;;5048522;28;20041;-78
2022/11/16 06:13:31;;;;;;;6.18;1.88;;;;;;;;;;5048896;28;20037;-79
2022/11/16 06:15:57;;;;;;;3.47;1.40;;;;;;;;;;5050382;28;20052;-80
2022/11/16 06:18:24;;;;;;;5.72;1.17;;;;;;;;;;5051241;28;21066;-79
2022/11/16 06:20:50;;;;;;;5.95;1.88;;;;;;;;;;5030235;28;20519;-80
2022/11/16 06:23:16;;;;;;;4.65;1.27;;;;;;;;;;5030636;28;20140;-79
2022/11/16 06:25:42;;;;;;;5.95;1.80;;;;;;;;;;5046405;28;20072;-79
2022/11/16 06:28:08;;;;;;;5.18;1.38;;;;;;;;;;5047069;28;20044;-80
2022/11/16 06:30:34;;;;;;;1.08;0.60;;;;;;;;;;5051139;28;20045;-80
2022/11/16 06:33:00;;;;;;;3.22;1.25;;;;;;;;;;5030547;28;20055;-80
2022/11/16 06:35:26;;;;;;;5.38;2.00;;;;;;;;;;5050424;28;20103;-79
2022/11/16 06:37:52;;;;;;;4.82;1.73;;;;;;;;;;5052756;28;20044;-78
2022/11/16 06:40:18;;;;;;;6.47;1.23;;;;;;;;;;5032211;28;20045;-79
2022/11/16 06:42:44;;;;;;;3.20;1.85;;;;;;;;;;5050775;28;20616;-78
2022/11/16 06:45:10;;;;;;;4.78;1.27;;;;;;;;;;5047991;28;20698;-80
2022/11/16 06:47:36;;;;;;;6.28;1.60;;;;;;;;;;5049789;28;20358;-79
2022/11/16 06:50:03;;;;;;;13.52;2.67;;;;;;;;;;5048506;28;20132;-80
2022/11/16 06:52:29;;;;;;;1.77;0.98;;;;;;;;;;5043093;28;20137;-81
2022/11/16 06:54:55;;;;;;;3.92;1.58;;;;;;;;;;5042374;28;20048;-78
2022/11/16 06:57:21;;;;;;;8.52;1.73;;;;;;;;;;5044168;28;20851;-78
2022/11/16 06:59:47;;;;;;;9.57;2.10;;;;;;;;;;5046498;28;20040;-77
2022/11/16 07:02:13;;;;;;;4.38;2.17;;;;;;;;;;5027143;28;20048;-77
2022/11/16 07:04:39;;;;;;;5.50;1.92;;;;;;;;;;5041978;28;20057;-78
2022/11/16 07:07:06;;;;;;;4.53;1.58;;;;;;;;;;5028800;28;20061;-77
2022/11/16 07:09:32;;;;;;;3.67;1.40;;;;;;;;;;5029833;28;20072;-77
2022/11/16 07:11:58;;;;;;;5.03;1.90;;;;;;;;;;5024195;28;20195;-77
2022/11/16 07:14:24;;;;;;;5.85;2.10;;;;;;;;;;5025966;28;20045;-78
2022/11/16 07:16:50;;;;;;;4.43;1.75;;;;;;;;;;5027235;28;20038;-78
2022/11/16 07:19:16;;;;;;;11.05;2.78;;;;;;;;;;5026490;28;20045;-78
2022/11/16 07:21:42;;;;;;;10.18;3.13;;;;;;;;;;5026932;28;20037;-78
2022/11/16 07:24:08;;;;;;;6.68;1.88;;;;;;;;;;5042469;28;20046;-78
2022/11/16 07:26:35;;;;;;;12.02;1.88;;;;;;;;;;5022310;28;20179;-78
2022/11/16 07:29:01;;;;;;;3.25;1.92;;;;;;;;;;5021728;28;20573;-77
2022/11/16 07:31:27;;;;;;;4.75;1.90;;;;;;;;;;5023340;28;21225;-78
2022/11/16 07:33:54;;;;;;;4.30;1.55;;;;;;;;;;5023866;28;20669;-77
2022/11/16 07:36:20;;;;;;;5.40;2.22;;;;;;;;;;5021864;28;20049;-78
2022/11/16 07:38:46;;;;;;;12.43;2.30;;;;;;;;;;5024038;28;20033;-77
2022/11/16 07:41:14;;;;;;;9.07;2.60;;;;;;;;;;5021609;28;21192;-78
2022/11/16 07:43:40;;;;;;;7.30;2.35;;;;;;;;;;5024317;28;20053;-78
2022/11/16 07:46:07;;;;;;;5.85;2.10;;;;;;;;;;5024601;28;20049;-78
2022/11/16 07:48:34;;;;;;;6.68;2.97;;;;;;;;;;5029697;28;20156;-78
2022/11/16 07:51:04;;;;;;;7.82;2.22;;;;;;;;;;5024960;28;20339;-78
2022/11/16 07:53:31;;;;;;;7.10;2.58;;;;;;;;;;5029896;28;20042;-78
2022/11/16 07:55:57;;;;;;;5.20;2.20;;;;;;;;;;5024142;28;20042;-78
2022/11/16 07:58:23;;;;;;;8.30;2.03;;;;;;;;;;5025039;28;20051;-78
2022/11/16 08:00:50;;;;;;;8.18;2.25;;;;;;;;;;5029774;28;20752;-78
2022/11/16 08:03:16;;;;;;;6.13;2.58;;;;;;;;;;5024346;28;20052;-77
2022/11/16 08:05:45;;;;;;;10.77;3.35;;;;;;;;;;5051315;28;20045;-78
2022/11/16 08:08:11;;;;;;;6.53;2.25;;;;;;;;;;5051410;28;20107;-78
2022/11/16 08:10:38;;;;;;;6.60;2.03;;;;;;;;;;5049405;28;20075;-78
2022/11/16 08:13:04;;;;;;;13.25;3.53;;;;;;;;;;5048037;28;20068;-78
2022/11/16 08:15:30;;;;;;;14.98;2.65;;;;;;;;;;5027990;28;20041;-78
2022/11/16 08:17:57;;;;;;;5.50;2.60;;;;;;;;;;5049586;28;20565;-78
2022/11/16 08:20:23;;;;;;;3.90;1.80;;;;;;;;;;5049663;28;20057;-78
2022/11/16 08:22:49;;;;;;;10.68;2.30;;;;;;;;;;5049012;28;21421;-78
2022/11/16 08:25:15;;;;;;;14.15;2.47;;;;;;;;;;5052146;28;20657;-78
2022/11/16 08:27:42;;;;;;;8.27;2.45;;;;;;;;;;5049007;28;20913;-78
2022/11/16 08:30:08;;;;;;;11.70;3.50;;;;;;;;;;5032427;28;20625;-78
2022/11/16 08:32:37;;;;;;;14.25;5.38;;;;;;;;;;5048820;28;20037;-78
2022/11/16 08:35:04;;;;;;;12.93;2.38;;;;;;;;;;5033043;28;20099;-77
2022/11/16 08:37:30;;;;;;;8.75;4.22;;;;;;;;;;5051259;28;20037;-78
2022/11/16 08:39:57;;;;;;;11.32;2.83;;;;;;;;;;5049811;28;20037;-78
2022/11/16 08:42:23;;;;;;;7.18;2.13;;;;;;;;;;5057425;28;20511;-78
2022/11/16 08:44:49;;;;;;;7.03;1.75;;;;;;;;;;5055778;28;20052;-78
2022/11/16 08:47:18;;;;;;;6.47;2.20;;;;;;;;;;5057319;28;20041;-78
2022/11/16 08:49:44;;;;;;;9.07;2.05;;;;;;;;;;5039372;28;20738;-78
2022/11/16 08:52:10;;;;;;;5.55;1.95;;;;;;;;;;5053928;28;20040;-77
2022/11/16 08:54:36;;;;;;;7.55;2.15;;;;;;;;;;5057200;28;21245;-77
2022/11/16 08:57:03;;;;;;;6.75;2.78;;;;;;;;;;5038812;28;20336;-77
2022/11/16 08:59:29;;;;;;;9.93;2.05;;;;;;;;;;5054601;28;20044;-78
2022/11/16 09:01:55;;;;;;;10.65;2.80;;;;;;;;;;5054511;28;20047;-78
2022/11/16 09:04:22;;;;;;;6.88;3.38;;;;;;;;;;5054997;28;20115;-78
2022/11/16 09:06:48;;;;;;;6.47;2.20;;;;;;;;;;5034842;28;20558;-78
2022/11/16 09:09:14;;;;;;;10.38;2.28;;;;;;;;;;5038922;28;20045;-77
2022/11/16 09:11:40;;;;;;;9.25;2.17;;;;;;;;;;5056567;28;20553;-77
2022/11/16 09:14:08;;;;;;;9.43;1.90;;;;;;;;;;5056019;28;20517;-77
2022/11/16 09:16:34;;;;;;;8.45;2.30;;;;;;;;;;5055857;28;20037;-78
2022/11/16 09:19:01;;;;;;;8.52;2.35;;;;;;;;;;5053287;28;20119;-77
2022/11/16 09:21:28;;;;;;;12.25;2.35;;;;;;;;;;5038290;28;20048;-77
2022/11/16 09:23:54;;;;;;;8.40;2.30;;;;;;;;;;5038469;28;20154;-78
2022/11/16 09:26:22;;;;;;;6.65;1.95;;;;;;;;;;5055242;28;21298;-77
2022/11/16 09:28:56;;;;;;;7.82;1.67;;;;;;;;;;5037575;28;20041;-78
2022/11/16 09:31:23;;;;;;;3.25;1.90;;;;;;;;;;5055745;28;20131;-77
2022/11/16 09:33:49;;;;;;;9.65;2.88;;;;;;;;;;5055285;28;20086;-77
2022/11/16 09:36:15;;;;;;;6.05;2.30;;;;;;;;;;5056177;28;20041;-79
2022/11/16 09:38:43;;;;;;;7.78;2.00;;;;;;;;;;5054676;28;20088;-79
2022/11/16 09:41:16;;;;;;;6.45;2.05;;;;;;;;;;5056049;28;20046;-79
2022/11/16 09:43:49;;;;;;;19.15;5.10;;;;;;;;;;5053970;28;20055;-79
2022/11/16 09:46:19;;;;;;;7.00;2.47;;;;;;;;;;5039273;28;20043;-79
2022/11/16 09:48:45;;;;;;;11.13;2.42;;;;;;;;;;5055628;28;20581;-80
2022/11/16 09:51:13;;;;;;;5.30;2.03;;;;;;;;;;5036178;28;20132;-78
2022/11/16 09:53:53;;;;;;;10.77;2.80;;;;;;;;;;5033852;28;20037;-78
2022/11/16 09:56:20;;;;;;;7.82;2.65;;;;;;;;;;5052643;28;20048;-79
2022/11/16 09:58:49;;;;;;;6.20;1.60;;;;;;;;;;5053193;28;20124;-78
2022/11/16 10:01:20;;;;;;;7.75;1.98;;;;;;;;;;5051463;28;20056;-79
2022/11/16 10:03:49;;;;;;;8.88;1.92;;;;;;;;;;5051884;28;20103;-79
2022/11/16 10:06:28;;;;;;;5.63;2.38;;;;;;;;;;5030966;28;20116;-79
2022/11/16 10:08:58;;;;;;;6.13;1.95;;;;;;;;;;5030467;28;20084;-79
2022/11/16 10:11:44;;;;;;;11.98;2.92;;;;;;;;;;5035560;28;20053;-78
2022/11/16 10:14:31;;;;;;;7.53;2.25;;;;;;;;;;5052848;28;20091;-79
2022/11/16 10:17:13;;;;;;;6.25;2.90;;;;;;;;;;5052857;28;20048;-78
2022/11/16 10:19:45;;;;;;;5.05;2.25;;;;;;;;;;5035594;28;20560;-78
2022/11/16 10:22:20;;;;;;;7.55;1.73;;;;;;;;;;5052940;28;20053;-78
2022/11/16 10:25:00;;;;;;;4.72;1.80;;;;;;;;;;5050479;28;20049;-78
2022/11/16 10:27:43;;;;;;;10.35;2.45;;;;;;;;;;5035472;28;20037;-78
2022/11/16 10:30:15;;;;;;;8.95;1.90;;;;;;;;;;5033848;28;20042;-78
2022/11/16 10:32:41;;;;;;;;;;;;;;;;;;5051761;28;20055;-78
2022/11/16 10:35:10;;;;;;;12.82;3.75;;;;;;;;;;5051906;28;20334;-79
2022/11/16 10:37:38;;;;;;;10.45;2.35;;;;;;;;;;5052371;28;20852;-78
2022/11/16 10:40:30;;;;;;;8.68;2.70;;;;;;;;;;5050430;28;20037;-78
2022/11/16 10:43:02;;;;;;;9.13;3.35;;;;;;;;;;5047806;28;20638;-78
2022/11/16 10:45:38;;;;;;;7.93;2.88;;;;;;;;;;5029187;28;20060;-78
2022/11/16 10:48:31;;;;;;;7.88;2.85;;;;;;;;;;5054598;28;20040;-78
2022/11/16 10:50:57;;;;;;;10.27;2.30;;;;;;;;;;5034561;28;20059;-78
2022/11/16 10:53:28;;;;;;;11.65;2.42;;;;;;;;;;5037769;28;20052;-78
2022/11/16 10:56:00;;;;;;;4.60;1.67;;;;;;;;;;5055706;28;20048;-78
2022/11/16 10:58:27;;;;;;;6.88;2.10;;;;;;;;;;5052365;28;20045;-78
2022/11/16 11:00:53;;;;;;;7.63;2.33;;;;;;;;;;5050233;28;20041;-78
2022/11/16 11:03:31;;;;;;;11.23;3.58;;;;;;;;;;5052381;28;20556;-79
2022/11/16 11:05:58;;;;;;;6.70;2.28;;;;;;;;;;5050053;28;20056;-78
2022/11/16 11:08:31;;;;;;;9.93;2.00;;;;;;;;;;5052380;28;20982;-78
2022/11/16 11:12:36;;;;;;;16.60;2.78;;;;;;;;;;5050981;28;20041;-78
2022/11/16 11:14:01;;;;;;;13.50;3.00;;;;;;;;;;5051613;28;20793;-78
2022/11/16 11:16:27;;;;;;;9.45;3.05;;;;;;;;;;5034691;28;20115;-79
2022/11/16 11:18:53;;;;;;;16.38;4.28;;;;;;;;;;5027127;28;20052;-79
2022/11/16 11:21:20;;;;;;;10.52;3.28;;;;;;;;;;5034766;28;20041;-78
2022/11/16 11:23:47;;;;;;;13.20;2.72;;;;;;;;;;5051863;28;20041;-79
2022/11/16 11:26:31;;;;;;;9.05;2.70;;;;;;;;;;5051635;28;20048;-79
2022/11/16 11:28:59;;;;;;;12.77;3.20;;;;;;;;;;5049668;28;20076;-79
2022/11/16 11:31:43;;;;;;;10.02;3.25;;;;;;;;;;5052609;28;20041;-79
2022/11/16 11:34:10;;;;;;;12.30;2.88;;;;;;;;;;5050726;28;20160;-79
2022/11/16 11:36:40;;;;;;;15.63;4.32;;;;;;;;;;5030420;28;20041;-79
2022/11/16 11:39:27;;;;;;;9.43;3.10;;;;;;;;;;5028333;28;20043;-79
2022/11/16 11:42:11;;;;;;;9.43;2.88;;;;;;;;;;5019276;28;20053;-79
2022/11/16 11:44:48;;;;;;;13.77;3.50;;;;;;;;;;5051017;28;20535;-78
2022/11/16 11:47:25;;;;;;;12.82;3.38;;;;;;;;;;5050474;28;20063;-78
2022/11/16 11:49:53;;;;;;;16.60;3.42;;;;;;;;;;5050054;28;20045;-79
2022/11/16 11:52:27;;;;;;;10.88;4.35;;;;;;;;;;5033967;28;20048;-78
2022/11/16 11:54:54;;;;;;;13.02;2.88;;;;;;;;;;5032042;28;20114;-78
2022/11/16 11:57:22;;;;;;;17.92;2.95;;;;;;;;;;5032895;28;20044;-78
2022/11/16 11:59:49;;;;;;;9.85;2.85;;;;;;;;;;5033453;28;20041;-79
2022/11/16 12:02:27;;;;;;;15.00;4.28;;;;;;;;;;5032694;28;20063;-79
2022/11/16 12:05:09;;;;;;;11.32;3.15;;;;;;;;;;5050330;28;20057;-78
2022/11/16 12:07:48;;;;;;;23.73;9.35;;;;;;;;;;5051283;28;20777;-79
2022/11/16 12:10:32;;;;;;;33.78;13.98;;;;;;;;;;5050392;28;20104;-79
2022/11/16 12:13:17;;;;;;;21.88;9.80;;;;;;;;;;5051065;28;20041;-79
2022/11/16 12:15:54;;;;;;;15.38;7.55;;;;;;;;;;5032266;28;20052;-78
2022/11/16 12:18:43;;;;;;;8.98;4.63;;;;;;;;;;5052127;28;20037;-79
2022/11/16 12:21:13;;;;;;;11.70;4.65;;;;;;;;;;5032926;28;20062;-78
2022/11/16 12:23:39;;;;;;;13.18;3.85;;;;;;;;;;5050989;28;20044;-78
2022/11/16 12:26:20;;;;;;;8.88;3.15;;;;;;;;;;5049981;28;20052;-78
2022/11/16 12:28:49;;;;;;;9.57;4.97;;;;;;;;;;5033749;28;20130;-78
2022/11/16 12:31:22;;;;;;;18.60;3.88;;;;;;;;;;5031783;28;20076;-78
2022/11/16 12:34:06;;;;;;;11.45;3.15;;;;;;;;;;5032107;28;20111;-79
2022/11/16 12:36:49;;;;;;;9.00;3.45;;;;;;;;;;5034527;28;20108;-79
2022/11/16 12:39:15;;;;;;;9.10;3.35;;;;;;;;;;5032801;28;20086;-79
2022/11/16 12:41:44;;;;;;;9.93;3.38;;;;;;;;;;5051901;28;20040;-79
2022/11/16 12:44:13;;;;;;;13.07;3.38;;;;;;;;;;5050788;28;20139;-79
2022/11/16 12:46:48;;;;;;;9.82;2.97;;;;;;;;;;5032458;28;20120;-79
2022/11/16 12:49:17;;;;;;;10.63;3.97;;;;;;;;;;5030111;28;20045;-79
2022/11/16 12:51:52;;;;;;;11.07;3.70;;;;;;;;;;5049745;28;20045;-78
2022/11/16 12:54:28;;;;;;;8.90;2.72;;;;;;;;;;5052344;28;20549;-79
2022/11/16 12:56:57;;;;;;;9.70;3.10;;;;;;;;;;5048299;28;20585;-79
2022/11/16 12:59:26;;;;;;;8.82;3.00;;;;;;;;;;5050831;28;20090;-79
2022/11/16 13:02:03;;;;;;;7.88;3.20;;;;;;;;;;5048623;28;21199;-79
2022/11/16 13:04:35;;;;;;;10.30;3.45;;;;;;;;;;5049651;28;20064;-79
2022/11/16 13:07:08;;;;;;;18.25;3.85;;;;;;;;;;5048790;28;20086;-78
2022/11/16 13:09:46;;;;;;;12.70;4.72;;;;;;;;;;5052150;28;20079;-78
2022/11/16 13:12:14;;;;;;;11.05;3.67;;;;;;;;;;5032715;28;20037;-78
2022/11/16 13:14:42;;;;;;;16.17;3.47;;;;;;;;;;5049883;28;20067;-78
2022/11/16 13:17:14;;;;;;;12.48;3.65;;;;;;;;;;5031452;28;20103;-78
2022/11/16 13:19:43;;;;;;;13.02;4.30;;;;;;;;;;5032792;28;20049;-79
2022/11/16 13:22:09;;;;;;;11.00;3.38;;;;;;;;;;5050035;28;20041;-78
2022/11/16 13:24:43;;;;;;;9.40;2.67;;;;;;;;;;5034756;28;20068;-79
2022/11/16 13:27:12;;;;;;;16.55;4.30;;;;;;;;;;5051541;28;20075;-79
2022/11/16 13:29:55;;;;;;;14.35;4.13;;;;;;;;;;5054858;28;20108;-79
2022/11/16 13:32:29;;;;;;;14.27;3.30;;;;;;;;;;5053462;28;20057;-79
2022/11/16 13:34:55;;;;;;;20.00;4.03;;;;;;;;;;5053531;28;20041;-79
2022/11/16 13:37:36;;;;;;;11.32;3.55;;;;;;;;;;5053089;28;20125;-78
2022/11/16 13:40:05;;;;;;;9.43;3.27;;;;;;;;;;5059074;28;20033;-79
2022/11/16 13:42:51;;;;;;;12.27;4.80;;;;;;;;;;5059571;28;20231;-79
2022/11/16 13:45:19;;;;;;;13.52;5.45;;;;;;;;;;5042021;28;20553;-79
2022/11/16 13:47:52;;;;;;;16.58;5.03;;;;;;;;;;5055647;28;20037;-78
2022/11/16 13:50:20;;;;;;;17.50;4.10;;;;;;;;;;5034843;28;20041;-79
2022/11/16 13:52:54;;;;;;;19.83;4.40;;;;;;;;;;5054889;28;20162;-79
2022/11/16 13:55:26;;;;;;;7.82;3.58;;;;;;;;;;5030818;28;20041;-78
2022/11/16 13:57:55;;;;;;;12.98;3.97;;;;;;;;;;5054753;28;20052;-78
2022/11/16 14:00:22;;;;;;;15.88;3.30;;;;;;;;;;5053172;28;20123;-79
2022/11/16 14:02:48;;;;;;;14.90;4.65;;;;;;;;;;5053846;28;20049;-77
2022/11/16 14:05:15;;;;;;;15.23;4.47;;;;;;;;;;5053164;28;20056;-78
2022/11/16 14:07:43;;;;;;;10.13;2.47;;;;;;;;;;5035031;28;20507;-77
2022/11/16 14:10:10;;;;;;;12.65;5.03;;;;;;;;;;5034257;28;20130;-78
2022/11/16 14:12:53;;;;;;;11.90;3.08;;;;;;;;;;5052621;28;20037;-77
2022/11/16 14:15:24;;;;;;;14.00;4.28;;;;;;;;;;5052237;28;20083;-78
2022/11/16 14:17:50;;;;;;;9.30;2.75;;;;;;;;;;5051926;28;20052;-77
2022/11/16 14:20:25;;;;;;;9.85;2.80;;;;;;;;;;5051872;28;21720;-77
2022/11/16 14:22:51;;;;;;;8.10;3.40;;;;;;;;;;5034209;28;20044;-77
2022/11/16 14:25:24;;;;;;;12.50;3.53;;;;;;;;;;5051832;28;20092;-77
2022/11/16 14:27:56;;;;;;;16.63;3.72;;;;;;;;;;5052118;28;20052;-77
2022/11/16 14:30:24;;;;;;;12.38;3.55;;;;;;;;;;5050362;28;20115;-77
2022/11/16 14:32:51;;;;;;;13.77;2.83;;;;;;;;;;5050210;28;20045;-77
2022/11/16 14:35:28;;;;;;;16.02;4.45;;;;;;;;;;5051645;28;20045;-77
2022/11/16 14:38:02;;;;;;;11.02;3.08;;;;;;;;;;5052618;28;20543;-77
2022/11/16 14:40:28;;;;;;;12.82;3.42;;;;;;;;;;5035103;28;20069;-78
2022/11/16 14:43:00;;;;;;;21.60;5.53;;;;;;;;;;5050085;28;20041;-78
2022/11/16 14:45:30;;;;;;;16.83;3.95;;;;;;;;;;5049454;28;20049;-78
2022/11/16 14:48:06;;;;;;;10.07;3.03;;;;;;;;;;5048795;28;20045;-78
2022/11/16 14:50:33;;;;;;;16.80;4.03;;;;;;;;;;5050024;28;20049;-78
2022/11/16 14:53:04;;;;;;;10.35;3.50;;;;;;;;;;5049307;28;20037;-77
2022/11/16 14:55:30;;;;;;;19.05;3.63;;;;;;;;;;5049972;28;20055;-78
2022/11/16 14:58:09;;;;;;;14.50;3.70;;;;;;;;;;5029244;28;21207;-77
2022/11/16 15:00:36;;;;;;;14.40;3.40;;;;;;;;;;5051053;28;20049;-77
2022/11/16 15:03:02;;;;;;;11.82;3.58;;;;;;;;;;5033486;28;20055;-77
2022/11/16 15:05:30;;;;;;;12.68;3.15;;;;;;;;;;5049999;28;20060;-78
2022/11/16 15:07:58;;;;;;;8.45;2.63;;;;;;;;;;5049814;28;20121;-78
2022/11/16 15:10:26;;;;;;;12.60;5.30;;;;;;;;;;5049721;28;20049;-77
2022/11/16 15:12:53;;;;;;;6.20;2.00;;;;;;;;;;5051611;28;20033;-78
2022/11/16 15:15:27;;;;;;;11.27;2.90;;;;;;;;;;5052865;28;20084;-77
2022/11/16 15:17:59;;;;;;;6.43;2.28;;;;;;;;;;5033806;28;20513;-77
2022/11/16 15:20:26;;;;;;;9.43;2.88;;;;;;;;;;5050298;28;20570;-78
2022/11/16 15:22:53;;;;;;;10.00;2.40;;;;;;;;;;5033347;28;20544;-77
2022/11/16 15:25:30;;;;;;;9.48;3.60;;;;;;;;;;5032112;28;20086;-78
2022/11/16 15:28:13;;;;;;;7.50;2.70;;;;;;;;;;5048397;28;20041;-78
2022/11/16 15:30:40;;;;;;;6.57;2.50;;;;;;;;;;5028251;28;20045;-78
2022/11/16 15:33:17;;;;;;;7.45;2.45;;;;;;;;;;5048111;28;20116;-77